Time;durP1;ratioP1;P1;durP2;ratioP2;P2;SDS_P1;SDS_P2;PMS_P1;PMS_P2;Temp;Humidity;BMP_temperature;BMP_pressure;BME280_temperature;BME280_humidity;BME280_pressure;Samples;Min_cycle;Max_cycle;Signal;HPM_P1;HPM_P2
2022/07/10 00:01:13;;;;;;;3.80;2.47;;;;;;;;;;5116935;28;20185;-86
2022/07/10 00:03:40;;;;;;;3.93;2.37;;;;;;;;;;5119431;28;20218;-87
2022/07/10 00:06:07;;;;;;;4.60;3.00;;;;;;;;;;5121322;28;20211;-87
2022/07/10 00:08:33;;;;;;;4.70;3.13;;;;;;;;;;5120349;28;20547;-87
2022/07/10 00:10:59;;;;;;;4.43;3.03;;;;;;;;;;5121154;28;20634;-87
2022/07/10 00:13:25;;;;;;;4.50;2.87;;;;;;;;;;5119063;28;20199;-87
2022/07/10 00:15:51;;;;;;;5.47;3.10;;;;;;;;;;5119511;28;20320;-87
2022/07/10 00:18:17;;;;;;;3.97;3.07;;;;;;;;;;5119789;28;20180;-87
2022/07/10 00:20:43;;;;;;;4.00;3.40;;;;;;;;;;5120285;28;20188;-87
2022/07/10 00:23:08;;;;;;;5.93;3.93;;;16.00;99.90;;;;;;5120043;28;20667;-87
2022/07/10 00:25:35;;;;;;;5.97;3.27;;;;;;;;;;5120398;28;20184;-87
2022/07/10 00:28:01;;;;;;;3.97;3.50;;;;;;;;;;5120310;28;20180;-87
2022/07/10 00:30:27;;;;;;;6.37;3.73;;;;;;;;;;5121682;28;20531;-87
2022/07/10 00:32:53;;;;;;;4.53;3.73;;;15.80;99.90;;;;;;5120605;28;20281;-87
2022/07/10 00:35:19;;;;;;;7.47;4.03;;;;;;;;;;5119779;28;20175;-87
2022/07/10 00:37:45;;;;;;;4.47;3.87;;;15.80;99.90;;;;;;5118691;28;20285;-88
2022/07/10 00:40:12;;;;;;;4.67;3.80;;;;;;;;;;5118540;28;20173;-88
2022/07/10 00:42:37;;;;;;;5.37;3.93;;;15.80;99.90;;;;;;5118984;28;20193;-87
2022/07/10 00:45:04;;;;;;;9.23;4.07;;;15.80;99.90;;;;;;5119433;28;20211;-87
2022/07/10 00:47:29;;;;;;;6.57;3.80;;;15.90;99.90;;;;;;5119472;28;20178;-88
2022/07/10 00:49:55;;;;;;;5.73;4.17;;;15.80;99.90;;;;;;5119912;28;20226;-87
2022/07/10 00:52:21;;;;;;;6.80;4.00;;;15.70;99.90;;;;;;5120418;28;20203;-87
2022/07/10 00:54:50;;;;;;;5.23;4.40;;;15.40;99.90;;;;;;5118934;28;20641;-87
2022/07/10 00:57:17;;;;;;;5.13;4.10;;;15.70;99.90;;;;;;5119571;28;20200;-87
2022/07/10 00:59:44;;;;;;;6.83;4.13;;;15.60;99.90;;;;;;5118079;28;20176;-87
2022/07/10 01:02:10;;;;;;;4.77;4.07;;;;;;;;;;5117973;28;20206;-87
2022/07/10 01:04:36;;;;;;;5.37;4.20;;;15.70;99.90;;;;;;5116796;28;20231;-88
2022/07/10 01:07:02;;;;;;;5.10;4.50;;;;;;;;;;5118834;28;20180;-87
2022/07/10 01:09:29;;;;;;;7.53;4.40;;;;;;;;;;5121006;28;20176;-87
2022/07/10 01:11:56;;;;;;;6.87;3.90;;;15.70;99.90;;;;;;5132700;28;20196;-87
2022/07/10 01:14:22;;;;;;;5.30;4.63;;;15.70;99.90;;;;;;5120288;28;20650;-87
2022/07/10 01:16:49;;;;;;;5.70;5.07;;;15.70;99.90;;;;;;5116893;28;20182;-88
2022/07/10 01:19:14;;;;;;;5.43;4.33;;;15.70;99.90;;;;;;5118767;28;20718;-87
2022/07/10 01:21:40;;;;;;;6.87;4.43;;;;;;;;;;5117020;28;20208;-88
2022/07/10 01:24:08;;;;;;;6.50;4.83;;;15.60;99.90;;;;;;5118068;28;20335;-87
2022/07/10 01:26:34;;;;;;;4.53;3.87;;;;;;;;;;5118829;28;20173;-87
2022/07/10 01:29:04;;;;;;;5.40;4.43;;;15.50;99.90;;;;;;5116663;28;20172;-88
2022/07/10 01:31:29;;;;;;;4.60;4.20;;;15.40;99.90;;;;;;5117082;28;20176;-87
2022/07/10 01:33:56;;;;;;;5.43;3.83;;;15.40;99.90;;;;;;5120523;28;20199;-88
2022/07/10 01:36:23;;;;;;;4.40;4.00;;;15.40;99.90;;;;;;5125653;28;20268;-87
2022/07/10 01:38:52;;;;;;;5.83;4.20;;;15.40;99.90;;;;;;5122343;28;20195;-88
2022/07/10 01:41:18;;;;;;;4.90;4.27;;;15.40;99.90;;;;;;5118368;28;20705;-87
2022/07/10 01:43:44;;;;;;;4.60;4.20;;;15.40;99.90;;;;;;5116779;28;20234;-88
2022/07/10 01:46:11;;;;;;;4.30;3.90;;;15.40;99.90;;;;;;5115483;28;20263;-87
2022/07/10 01:48:41;;;;;;;7.27;4.60;;;15.40;99.90;;;;;;5116351;28;20639;-88
2022/07/10 01:51:08;;;;;;;5.77;4.37;;;15.30;99.90;;;;;;5115248;28;20708;-87
2022/07/10 01:53:35;;;;;;;4.77;4.33;;;15.30;99.90;;;;;;5114799;28;20195;-88
2022/07/10 01:56:06;;;;;;;5.07;4.67;;;15.30;99.90;;;;;;5116613;28;20639;-87
2022/07/10 01:58:32;;;;;;;5.23;4.70;;;15.30;99.90;;;;;;5115203;28;20192;-87
2022/07/10 02:00:58;;;;;;;5.47;4.70;;;15.30;99.90;;;;;;5115352;28;20645;-87
2022/07/10 02:06:07;;;;;;;6.83;4.53;;;15.20;99.90;;;;;;5117263;28;20237;-87
2022/07/10 02:08:33;;;;;;;5.03;4.60;;;15.20;99.90;;;;;;5114816;28;20176;-87
2022/07/10 02:10:59;;;;;;;7.27;4.90;;;15.20;99.90;;;;;;5115324;28;20178;-87
2022/07/10 02:13:27;;;;;;;6.13;4.13;;;15.20;99.90;;;;;;5116344;28;20197;-88
2022/07/10 02:15:54;;;;;;;5.57;4.13;;;15.20;99.90;;;;;;5114861;28;20204;-87
2022/07/10 02:18:20;;;;;;;5.37;4.77;;;15.20;99.90;;;;;;5115443;28;20195;-88
2022/07/10 02:20:46;;;;;;;7.27;5.80;;;15.20;99.90;;;;;;5114966;28;20211;-87
2022/07/10 02:23:12;;;;;;;6.10;5.50;;;15.20;99.90;;;;;;5114697;28;20230;-87
2022/07/10 02:25:37;;;;;;;6.37;5.40;;;15.20;99.90;;;;;;5114053;28;20172;-87
2022/07/10 02:28:04;;;;;;;5.87;5.23;;;;;;;;;;5113864;28;20221;-87
2022/07/10 02:30:29;;;;;;;5.77;5.17;;;15.30;99.90;;;;;;5122473;28;20216;-88
2022/07/10 02:32:55;;;;;;;6.00;5.40;;;15.30;99.90;;;;;;5115891;28;20194;-87
2022/07/10 02:35:21;;;;;;;6.63;5.17;;;15.30;99.90;;;;;;5115827;28;20179;-87
2022/07/10 02:37:47;;;;;;;5.73;5.00;;;;;;;;;;5117843;28;20188;-87
2022/07/10 02:40:13;;;;;;;6.97;5.27;;;15.30;99.90;;;;;;5117154;28;20650;-87
2022/07/10 02:42:38;;;;;;;5.83;5.07;;;15.20;99.90;;;;;;5116324;28;20199;-87
2022/07/10 02:45:04;;;;;;;6.10;5.27;;;15.30;99.90;;;;;;5117821;28;20206;-87
2022/07/10 02:47:30;;;;;;;7.70;4.70;;;15.20;99.90;;;;;;5117234;28;20182;-87
2022/07/10 02:49:56;;;;;;;5.47;4.97;;;;;;;;;;5116745;28;20172;-87
2022/07/10 02:52:22;;;;;;;5.50;4.70;;;15.10;99.90;;;;;;5117099;28;20197;-87
2022/07/10 02:54:48;;;;;;;5.50;4.90;;;;;;;;;;5117636;28;20185;-87
2022/07/10 02:57:13;;;;;;;5.87;5.30;;;15.20;99.90;;;;;;5117259;28;20182;-87
2022/07/10 02:59:39;;;;;;;5.27;4.77;;;15.20;99.90;;;;;;5117876;28;20651;-87
2022/07/10 03:02:05;;;;;;;6.37;4.80;;;15.20;99.90;;;;;;5117295;28;20569;-87
2022/07/10 03:04:31;;;;;;;5.40;4.57;;;;;;;;;;5116396;28;20207;-87
2022/07/10 03:06:57;;;;;;;5.67;4.63;;;15.20;99.90;;;;;;5118268;28;20226;-87
2022/07/10 03:09:22;;;;;;;5.93;5.30;;;15.20;99.90;;;;;;5117414;28;20583;-87
2022/07/10 03:11:49;;;;;;;5.80;5.10;;;;;;;;;;5118361;28;20168;-87
2022/07/10 03:14:14;;;;;;;6.77;5.00;;;15.20;99.90;;;;;;5117135;28;20180;-87
2022/07/10 03:16:41;;;;;;;6.93;5.27;;;;;;;;;;5117800;28;20525;-87
2022/07/10 03:19:06;;;;;;;9.00;5.03;;;15.20;99.90;;;;;;5119289;28;20176;-87
2022/07/10 03:21:32;;;;;;;6.10;5.23;;;;;;;;;;5131089;28;20604;-87
2022/07/10 03:23:58;;;;;;;5.23;4.73;;;15.20;99.90;;;;;;5119606;28;20280;-87
2022/07/10 03:26:24;;;;;;;6.57;4.80;;;;;;;;;;5117814;28;20182;-87
2022/07/10 03:28:50;;;;;;;8.83;5.13;;;15.20;99.90;;;;;;5119284;28;20232;-87
2022/07/10 03:31:15;;;;;;;6.13;5.40;;;15.20;99.90;;;;;;5124768;28;20176;-87
2022/07/10 03:33:41;;;;;;;5.40;4.90;;;;;;;;;;5123550;28;20263;-87
2022/07/10 03:36:07;;;;;;;6.03;5.43;;;;;;;;;;5122758;28;20191;-87
2022/07/10 03:38:33;;;;;;;5.80;5.17;;;15.20;99.90;;;;;;5123271;28;20256;-87
2022/07/10 03:40:59;;;;;;;5.97;5.40;;;;;;;;;;5123290;28;20263;-87
2022/07/10 03:43:25;;;;;;;6.33;5.07;;;15.20;99.90;;;;;;5123638;28;20666;-87
2022/07/10 03:45:51;;;;;;;6.67;4.97;;;15.10;99.90;;;;;;5127420;28;20182;-87
2022/07/10 03:48:18;;;;;;;6.97;5.23;;;;;;;;;;5134641;28;20161;-87
2022/07/10 03:50:43;;;;;;;7.40;5.37;;;15.10;99.90;;;;;;5134726;28;20180;-87
2022/07/10 03:53:09;;;;;;;6.70;5.30;;;;;;;;;;5133326;28;20189;-87
2022/07/10 03:55:35;;;;;;;5.60;5.03;;;15.10;99.90;;;;;;5121805;28;20182;-87
2022/07/10 03:58:04;;;;;;;7.17;5.17;;;;;;;;;;5121453;28;20190;-87
2022/07/10 04:00:34;;;;;;;6.70;4.90;;;15.10;99.90;;;;;;5122055;28;20248;-87
2022/07/10 04:03:06;;;;;;;7.57;5.17;;;15.20;99.90;;;;;;5121864;28;20204;-87
2022/07/10 04:05:33;;;;;;;5.50;5.00;;;15.20;99.90;;;;;;5121808;28;20172;-87
2022/07/10 04:07:59;;;;;;;5.73;5.00;;;15.20;99.90;;;;;;5124019;28;20168;-87
2022/07/10 04:10:26;;;;;;;5.43;4.93;;;15.10;99.90;;;;;;5126968;28;20196;-87
2022/07/10 04:12:52;;;;;;;5.80;5.20;;;15.10;99.90;;;;;;5127321;28;20197;-87
2022/07/10 04:15:18;;;;;;;6.93;5.10;;;;;;;;;;5127074;28;20188;-87
2022/07/10 04:17:44;;;;;;;5.60;5.00;;;;;;;;;;5128279;28;20177;-87
2022/07/10 04:20:10;;;;;;;5.37;4.50;;;15.10;99.90;;;;;;5127626;28;20182;-87
2022/07/10 04:22:36;;;;;;;5.57;4.37;;;15.10;99.90;;;;;;5127050;28;20203;-87
2022/07/10 04:25:03;;;;;;;5.47;4.57;;;15.10;99.90;;;;;;5128155;28;20199;-87
2022/07/10 04:27:29;;;;;;;8.60;5.40;;;15.10;99.90;;;;;;5125322;28;20171;-87
2022/07/10 04:29:55;;;;;;;5.13;4.73;;;;;;;;;;5126651;28;20176;-87
2022/07/10 04:32:21;;;;;;;6.53;5.30;;;;;;;;;;5126985;28;20192;-87
2022/07/10 04:34:47;;;;;;;5.37;4.87;;;15.10;99.90;;;;;;5127072;28;20183;-87
2022/07/10 04:37:13;;;;;;;5.43;4.93;;;;;;;;;;5126376;28;20184;-87
2022/07/10 04:39:39;;;;;;;7.33;4.57;;;15.10;99.90;;;;;;5123633;28;20186;-87
2022/07/10 04:42:06;;;;;;;7.07;5.00;;;15.10;99.90;;;;;;5120570;28;20191;-86
2022/07/10 04:44:32;;;;;;;5.30;4.80;;;15.10;99.90;;;;;;5119927;28;20203;-87
2022/07/10 04:46:58;;;;;;;4.93;4.53;;;15.10;99.90;;;;;;5119828;28;20517;-86
2022/07/10 04:49:24;;;;;;;8.47;5.27;;;15.10;99.90;;;;;;5119187;28;20172;-86
2022/07/10 04:51:50;;;;;;;5.17;4.67;;;;;;;;;;5118506;28;20172;-86
2022/07/10 04:54:16;;;;;;;5.40;4.90;;;15.10;99.90;;;;;;5118499;28;20188;-86
2022/07/10 04:56:42;;;;;;;6.60;4.63;;;;;;;;;;5119673;28;20201;-86
2022/07/10 04:59:09;;;;;;;6.00;5.20;;;15.40;99.90;;;;;;5117882;28;20204;-86
2022/07/10 05:01:35;;;;;;;5.00;4.50;;;15.10;99.90;;;;;;5118461;28;20168;-86
2022/07/10 05:04:01;;;;;;;6.27;4.97;;;15.50;99.90;;;;;;5117217;28;20207;-87
2022/07/10 05:06:27;;;;;;;5.53;4.70;;;;;;;;;;5122190;28;20172;-86
2022/07/10 05:08:53;;;;;;;5.57;4.50;;;15.30;99.90;;;;;;5121991;28;20548;-87
2022/07/10 05:11:19;;;;;;;6.10;4.90;;;15.00;99.90;;;;;;5122266;28;20183;-87
2022/07/10 05:13:48;;;;;;;5.63;4.93;;;;;;;;;;5122541;28;20203;-87
2022/07/10 05:16:16;;;;;;;5.97;5.37;;;15.20;99.90;;;;;;5123016;28;20180;-87
2022/07/10 05:18:42;;;;;;;6.57;5.37;;;15.30;99.90;;;;;;5124159;28;20179;-87
2022/07/10 05:21:08;;;;;;;6.60;5.83;;;;;;;;;;5122334;28;20184;-87
2022/07/10 05:23:35;;;;;;;6.37;5.53;;;15.20;99.90;;;;;;5123914;28;20203;-86
2022/07/10 05:26:00;;;;;;;6.43;5.83;;;15.20;99.90;;;;;;5123318;28;20201;-87
2022/07/10 05:28:26;;;;;;;5.97;5.37;;;;;;;;;;5122898;28;20180;-86
2022/07/10 05:30:52;;;;;;;6.20;5.60;;;;;;;;;;5122849;28;20197;-87
2022/07/10 05:33:18;;;;;;;6.37;5.47;;;15.20;99.90;;;;;;5123838;28;20700;-87
2022/07/10 05:35:44;;;;;;;8.93;5.90;;;;;;;;;;5121999;28;20175;-87
2022/07/10 05:38:11;;;;;;;6.57;5.90;;;15.20;99.90;;;;;;5127844;28;20226;-87
2022/07/10 05:40:37;;;;;;;7.77;5.63;;;15.20;99.90;;;;;;5125012;28;20192;-87
2022/07/10 05:43:03;;;;;;;6.07;5.23;;;;;;;;;;5123626;28;20195;-87
2022/07/10 05:45:30;;;;;;;5.63;4.80;;;15.30;99.90;;;;;;5122522;28;20199;-87
2022/07/10 05:47:56;;;;;;;10.60;5.70;;;15.20;99.90;;;;;;5122476;28;20177;-87
2022/07/10 05:50:22;;;;;;;7.63;5.80;;;15.30;99.90;;;;;;5123580;28;20525;-87
2022/07/10 05:52:48;;;;;;;6.33;5.57;;;;;;;;;;5123149;28;20226;-87
2022/07/10 05:55:15;;;;;;;6.17;5.57;;;15.30;99.90;;;;;;5123788;28;20190;-87
2022/07/10 05:57:41;;;;;;;7.10;5.50;;;15.40;99.90;;;;;;5123382;28;20581;-87
2022/07/10 06:00:08;;;;;;;8.53;5.93;;;15.30;99.90;;;;;;5125317;28;20171;-87
2022/07/10 06:02:34;;;;;;;7.37;5.47;;;;;;;;;;5125003;28;20565;-87
2022/07/10 06:05:00;;;;;;;6.33;5.73;;;15.20;99.90;;;;;;5125176;28;20203;-87
2022/07/10 06:07:26;;;;;;;6.63;5.87;;;15.20;99.90;;;;;;5129245;28;20199;-86
2022/07/10 06:09:52;;;;;;;7.60;6.47;;;15.00;99.90;;;;;;5136376;28;20197;-86
2022/07/10 06:12:18;;;;;;;6.80;6.20;;;15.00;99.90;;;;;;5136692;28;20211;-86
2022/07/10 06:14:44;;;;;;;10.03;6.80;;;15.00;99.90;;;;;;5134289;28;20177;-87
2022/07/10 06:17:10;;;;;;;7.37;6.67;;;15.10;99.90;;;;;;5121223;28;20515;-87
2022/07/10 06:19:35;;;;;;;8.57;7.00;;;15.10;99.90;;;;;;5121215;28;20168;-87
2022/07/10 06:24:45;;;;;;;8.60;6.77;;;15.20;99.90;;;;;;5122022;28;20705;-87
2022/07/10 06:27:11;;;;;;;6.83;6.20;;;;;;;;;;5120100;28;20175;-86
2022/07/10 06:29:37;;;;;;;7.43;6.17;;;15.30;99.90;;;;;;5119756;28;20183;-87
2022/07/10 06:32:04;;;;;;;8.90;6.10;;;15.40;99.90;;;;;;5120035;28;20195;-87
2022/07/10 06:34:29;;;;;;;6.17;5.57;;;15.40;99.90;;;;;;5120375;28;20210;-87
2022/07/10 06:36:56;;;;;;;7.17;6.10;;;;;;;;;;5120534;28;20545;-87
2022/07/10 06:39:21;;;;;;;5.57;5.07;;;15.40;99.90;;;;;;5120321;28;20187;-87
2022/07/10 06:41:47;;;;;;;6.93;6.07;;;15.50;99.90;;;;;;5120113;28;20190;-87
2022/07/10 06:44:13;;;;;;;5.97;5.47;;;;;;;;;;5121706;28;20203;-87
2022/07/10 06:46:39;;;;;;;7.97;5.60;;;15.50;99.90;;;;;;5119834;28;20175;-87
2022/07/10 06:49:05;;;;;;;7.23;6.33;;;15.60;99.90;;;;;;5120167;28;20525;-87
2022/07/10 06:51:31;;;;;;;8.17;5.80;;;15.80;99.90;;;;;;5120387;28;20233;-87
2022/07/10 06:53:57;;;;;;;8.03;5.53;;;;;;;;;;5121670;28;20215;-87
2022/07/10 06:56:23;;;;;;;6.20;5.60;;;15.80;99.90;;;;;;5120655;28;20200;-87
2022/07/10 06:58:49;;;;;;;7.07;5.57;;;;;;;;;;5120594;28;20270;-87
2022/07/10 07:01:15;;;;;;;5.73;5.20;;;16.00;99.90;;;;;;5121010;28;20655;-87
2022/07/10 07:03:40;;;;;;;5.40;4.87;;;16.00;99.90;;;;;;5123452;28;20206;-87
2022/07/10 07:06:07;;;;;;;6.63;5.10;;;;;;;;;;5126048;27;20697;-87
2022/07/10 07:08:35;;;;;;;5.37;4.87;;;16.10;99.90;;;;;;5125518;28;20179;-87
2022/07/10 07:11:00;;;;;;;7.20;5.70;;;16.10;99.90;;;;;;5126014;28;20225;-87
2022/07/10 07:13:26;;;;;;;9.13;5.40;;;16.10;99.90;;;;;;5127392;28;20191;-87
2022/07/10 07:16:04;;;;;;;5.93;5.13;;;16.00;99.90;;;;;;5127641;28;20188;-87
2022/07/10 07:18:35;;;;;;;6.30;5.53;;;16.00;99.90;;;;;;5136874;28;20171;-87
2022/07/10 07:23:45;;;;;;;5.07;4.57;;;15.90;99.90;;;;;;5124711;28;20214;-86
2022/07/10 07:26:10;;;;;;;5.90;5.30;;;15.80;99.90;;;;;;5121648;28;20176;-87
2022/07/10 07:28:36;;;;;;;5.53;4.90;;;15.80;99.90;;;;;;5121642;28;20206;-87
2022/07/10 07:31:02;;;;;;;5.50;5.00;;;;;;;;;;5121780;28;20203;-87
2022/07/10 07:33:28;;;;;;;7.10;5.10;;;15.70;99.90;;;;;;5121696;28;20208;-87
2022/07/10 07:35:54;;;;;;;8.17;5.00;;;;;;;;;;5120052;28;20184;-87
2022/07/10 07:38:19;;;;;;;7.37;4.73;;;15.60;99.90;;;;;;5120367;28;20193;-86
2022/07/10 07:40:45;;;;;;;8.30;5.30;;;;;;;;;;5119279;28;20233;-86
2022/07/10 07:43:11;;;;;;;7.93;5.40;;;15.50;99.90;;;;;;5119428;28;20695;-87
2022/07/10 07:45:37;;;;;;;5.20;4.70;;;;;;;;;;5124154;28;20172;-87
2022/07/10 07:48:03;;;;;;;7.30;5.27;;;15.60;99.90;;;;;;5123888;28;20211;-87
2022/07/10 07:50:32;;;;;;;6.13;4.27;;;15.70;99.90;;;;;;5125096;28;20224;-87
2022/07/10 07:52:59;;;;;;;5.30;4.80;;;15.80;99.90;;;;;;5123534;28;20661;-87
2022/07/10 07:55:33;;;;;;;4.77;4.37;;;15.80;99.90;;;;;;5124588;28;20187;-87
2022/07/10 07:57:59;;;;;;;7.10;4.57;;;15.70;99.90;;;;;;5124768;28;20176;-87
2022/07/10 08:00:26;;;;;;;6.53;4.77;;;15.80;99.90;;;;;;5123991;28;20187;-87
2022/07/10 08:02:54;;;;;;;6.37;4.27;;;15.80;99.90;;;;;;5125518;28;20254;-87
2022/07/10 08:05:21;;;;;;;6.03;4.37;;;16.20;99.90;;;;;;5125561;28;20287;-87
2022/07/10 08:07:48;;;;;;;7.73;4.33;;;;;;;;;;5122498;28;20192;-85
2022/07/10 08:10:16;;;;;;;5.47;4.67;;;16.00;99.90;;;;;;5123562;28;20527;-86
2022/07/10 08:12:42;;;;;;;5.60;4.53;;;16.10;99.90;;;;;;5122859;28;20201;-85
2022/07/10 08:15:10;;;;;;;5.87;4.43;;;16.10;99.90;;;;;;5120496;28;20308;-84
2022/07/10 08:17:36;;;;;;;6.03;4.40;;;;;;;;;;5121350;28;20220;-85
2022/07/10 08:20:03;;;;;;;6.23;4.77;;;16.00;99.90;;;;;;5125287;28;20172;-87
2022/07/10 08:22:29;;;;;;;4.43;4.03;;;16.30;99.90;;;;;;5126620;28;20218;-87
2022/07/10 08:24:56;;;;;;;5.77;4.20;;;16.30;99.90;;;;;;5129507;28;20186;-86
2022/07/10 08:27:22;;;;;;;7.10;4.47;;;16.30;99.90;;;;;;5140926;28;20181;-86
2022/07/10 08:29:48;;;;;;;9.50;4.67;;;16.50;99.90;;;;;;5140315;28;20174;-85
2022/07/10 08:32:14;;;;;;;5.47;4.43;;;;;;;;;;5127962;28;20198;-86
2022/07/10 08:34:40;;;;;;;7.13;4.37;;;16.90;99.90;;;;;;5121336;28;20276;-87
2022/07/10 08:37:06;;;;;;;5.40;4.20;;;;;;;;;;5120867;28;20213;-85
2022/07/10 08:39:32;;;;;;;7.90;4.63;;;17.10;99.90;;;;;;5122899;28;20546;-86
2022/07/10 08:41:58;;;;;;;3.83;3.20;;;17.40;99.90;;;;;;5121735;28;20201;-86
2022/07/10 08:44:24;;;;;;;4.43;3.57;;;17.40;99.90;;;;;;5123134;28;20211;-86
2022/07/10 08:46:50;;;;;;;4.27;3.53;;;;;;;;;;5123518;28;20266;-86
2022/07/10 08:49:17;;;;;;;3.90;3.50;;;17.30;99.90;;;;;;5127163;28;20191;-86
2022/07/10 08:52:13;;;;;;;6.77;3.60;;;17.70;99.90;;;;;;5125677;28;20172;-85
2022/07/10 08:54:39;;;;;;;5.00;3.10;;;17.70;99.90;;;;;;5121852;28;20164;-85
2022/07/10 08:57:05;;;;;;;5.90;3.20;;;17.80;99.90;;;;;;5119200;28;20178;-85
2022/07/10 08:59:31;;;;;;;3.40;2.77;;;;;;;;;;5119229;28;20651;-85
2022/07/10 09:01:57;;;;;;;4.30;3.43;;;18.10;99.90;;;;;;5119147;28;20179;-85
2022/07/10 09:04:25;;;;;;;7.77;3.40;;;18.20;99.90;;;;;;5119225;28;20262;-86
2022/07/10 09:06:52;;;;;;;4.70;3.27;;;18.20;99.90;;;;;;5119350;28;20182;-87
2022/07/10 09:09:18;;;;;;;4.47;3.80;;;;;;;;;;5119049;28;20187;-85
2022/07/10 09:11:44;;;;;;;4.27;3.20;;;18.40;99.90;;;;;;5120391;28;20207;-85
2022/07/10 09:14:15;;;;;;;3.77;3.37;;;18.80;99.90;;;;;;5120097;28;20209;-86
2022/07/10 09:16:45;;;;;;;3.40;2.60;;;18.80;99.90;;;;;;5121967;28;20597;-84
2022/07/10 09:19:27;;;;;;;3.77;3.10;;;18.90;99.90;;;;;;5118877;28;20229;-87
2022/07/10 09:22:05;;;;;;;4.67;2.93;;;18.80;99.90;;;;;;5121405;28;20243;-87
2022/07/10 09:24:42;;;;;;;3.53;3.23;;;19.00;99.90;;;;;;5121556;28;20195;-84
2022/07/10 09:27:09;;;;;;;3.87;3.00;;;18.90;99.90;;;;;;5119912;28;20254;-84
2022/07/10 09:29:56;;;;;;;3.20;2.90;;;18.90;99.90;;;;;;5120502;28;20206;-83
2022/07/10 09:32:21;;;;;;;3.37;2.90;;;19.50;99.90;;;;;;5121257;28;20227;-84
2022/07/10 09:34:49;;;;;;;3.90;3.00;;;19.90;99.90;;;;;;5120419;28;20187;-83
2022/07/10 09:37:30;;;;;;;3.37;2.70;;;19.90;99.90;;;;;;5123462;28;20262;-85
2022/07/10 09:40:03;;;;;;;5.93;2.97;;;20.30;99.90;;;;;;5120695;28;20269;-88
2022/07/10 09:42:36;;;;;;;4.47;3.07;;;20.40;99.90;;;;;;5118899;28;20214;-86
2022/07/10 09:45:20;;;;;;;3.27;2.60;;;20.40;99.90;;;;;;5118529;28;20199;-86
2022/07/10 09:47:51;;;;;;;2.67;2.47;;;20.60;99.90;;;;;;5118144;28;20285;-84
2022/07/10 09:50:24;;;;;;;2.70;2.50;;;20.60;99.90;;;;;;5118416;28;20163;-87
2022/07/10 09:53:01;;;;;;;4.13;2.80;;;20.60;99.90;;;;;;5119014;28;20641;-88
2022/07/10 09:55:29;;;;;;;5.53;3.00;;;20.70;99.90;;;;;;5117105;28;20228;-88
2022/07/10 09:58:00;;;;;;;2.90;2.53;;;20.70;99.90;;;;;;5117266;28;20181;-84
2022/07/10 10:00:34;;;;;;;2.93;2.63;;;20.50;99.90;;;;;;5118724;28;20179;-85
2022/07/10 10:03:04;;;;;;;3.07;2.63;;;20.00;99.90;;;;;;5116623;28;20237;-87
2022/07/10 10:05:53;;;;;;;3.03;2.13;;;19.90;99.90;;;;;;5117917;28;20193;-87
2022/07/10 10:08:24;;;;;;;2.90;2.60;;;19.60;99.90;;;;;;5116941;28;20214;-88
2022/07/10 10:10:51;;;;;;;5.37;2.57;;;19.60;99.90;;;;;;5117739;28;20179;-82
2022/07/10 10:13:19;;;;;;;2.70;2.50;;;19.80;99.90;;;;;;5123048;28;20202;-87
2022/07/10 10:15:47;;;;;;;3.20;2.60;;;20.10;99.90;;;;;;5125038;28;20175;-87
2022/07/10 10:18:13;;;;;;;4.37;2.43;;;;;;;;;;5124795;28;20180;-86
2022/07/10 10:20:44;;;;;;;3.17;2.57;;;21.40;99.90;;;;;;5122930;28;20181;-87
2022/07/10 10:23:12;;;;;;;3.50;2.30;;;21.60;99.90;;;;;;5122109;28;20199;-87
2022/07/10 10:25:38;;;;;;;2.63;2.20;;;21.70;99.90;;;;;;5120450;28;20172;-87
2022/07/10 10:28:07;;;;;;;2.93;2.10;;;21.90;99.90;;;;;;5124626;28;20161;-88
2022/07/10 10:30:40;;;;;;;3.57;2.37;;;22.10;99.90;;;;;;5137327;28;20191;-88
2022/07/10 10:33:31;;;;;;;2.93;1.90;;;22.10;99.90;;;;;;5136086;28;20206;-88
2022/07/10 10:35:57;;;;;;;2.03;1.83;;;22.40;99.90;;;;;;5127736;28;20241;-87
2022/07/10 10:38:23;;;;;;;3.70;2.17;;;22.00;99.90;;;;;;5115760;28;20617;-86
2022/07/10 10:40:49;;;;;;;2.83;2.03;;;21.40;99.90;;;;;;5120508;28;20172;-88
2022/07/10 10:43:23;;;;;;;2.17;1.97;;;21.10;99.90;;;;;;5117119;28;20194;-87
2022/07/10 10:45:50;;;;;;;2.47;2.10;;;21.10;99.90;;;;;;5117060;28;20184;-84
2022/07/10 10:48:17;;;;;;;4.70;2.07;;;21.30;99.90;;;;;;5118951;28;20176;-83
2022/07/10 10:50:51;;;;;;;2.77;2.10;;;21.40;99.90;;;;;;5119584;28;20179;-85
2022/07/10 10:53:26;;;;;;;2.57;2.03;;;21.20;99.90;;;;;;5120236;28;20801;-85
2022/07/10 10:56:03;;;;;;;3.93;1.70;;;20.90;99.90;;;;;;5121870;28;20180;-84
2022/07/10 10:58:39;;;;;;;3.80;1.70;;;20.70;99.90;;;;;;5120104;28;20177;-85
2022/07/10 11:01:26;;;;;;;4.80;1.90;;;20.30;99.90;;;;;;5120437;28;20213;-85
2022/07/10 11:04:12;;;;;;;2.17;1.70;;;19.80;99.90;;;;;;5118788;28;20287;-83
2022/07/10 11:06:40;;;;;;;2.00;1.50;;;19.50;99.90;;;;;;5117044;28;20177;-85
2022/07/10 11:09:29;;;;;;;2.60;1.77;;;19.30;99.90;;;;;;5118060;28;20262;-83
2022/07/10 11:12:09;;;;;;;3.30;2.00;;;19.20;99.90;;;;;;5118858;28;20167;-84
2022/07/10 11:14:37;;;;;;;2.57;1.77;;;19.30;99.90;;;;;;5117011;28;20184;-84
2022/07/10 11:17:04;;;;;;;5.80;2.10;;;19.90;99.90;;;;;;5117369;28;20192;-83
2022/07/10 11:19:31;;;;;;;2.23;1.70;;;20.90;99.90;;;;;;5117275;28;20181;-86
2022/07/10 11:22:06;;;;;;;2.23;1.83;;;21.50;99.90;;;;;;5117830;28;20207;-84
2022/07/10 11:24:37;;;;;;;4.20;1.63;;;21.40;99.90;;;;;;5120049;28;20200;-85
2022/07/10 11:27:24;;;;;;;1.87;1.47;;;21.10;99.90;;;;;;5119429;28;20174;-85
2022/07/10 11:29:58;;;;;;;2.93;1.57;;;20.80;99.90;;;;;;5121527;28;20240;-86
2022/07/10 11:32:24;;;;;;;2.03;1.50;;;20.30;99.90;;;;;;5121764;28;20202;-87
2022/07/10 11:34:50;;;;;;;2.53;1.50;;;20.20;99.90;;;;;;5121831;28;20183;-84
2022/07/10 11:37:16;;;;;;;2.43;1.37;;;20.90;99.90;;;;;;5122449;28;20238;-84
2022/07/10 11:39:42;;;;;;;2.53;1.77;;;21.30;99.90;;;;;;5121640;28;20186;-83
2022/07/10 11:42:08;;;;;;;2.60;1.50;;;21.90;99.90;;;;;;5122199;28;20266;-83
2022/07/10 11:44:34;;;;;;;3.00;1.63;;;21.90;99.90;;;;;;5122684;28;20203;-85
2022/07/10 11:47:00;;;;;;;5.87;1.70;;;21.50;99.90;;;;;;5124694;28;20167;-85
2022/07/10 11:49:27;;;;;;;2.53;1.63;;;21.10;99.90;;;;;;5123790;28;20197;-86
2022/07/10 11:51:53;;;;;;;1.60;1.30;;;20.70;99.90;;;;;;5128146;28;20187;-84
2022/07/10 11:54:19;;;;;;;2.07;1.57;;;20.70;99.90;;;;;;5125906;28;20613;-86
2022/07/10 11:56:52;;;;;;;1.63;1.30;;;20.80;99.90;;;;;;5127618;28;20221;-84
2022/07/10 11:59:19;;;;;;;1.97;1.40;;;20.70;99.90;;;;;;5127031;28;20206;-85
2022/07/10 12:01:50;;;;;;;2.33;1.50;;;20.80;99.90;;;;;;5127981;28;20283;-85
2022/07/10 12:04:18;;;;;;;2.57;1.50;;;20.90;99.90;;;;;;5128491;28;20195;-86
2022/07/10 12:06:46;;;;;;;3.13;1.40;;;21.20;99.90;;;;;;5127832;28;20179;-86
2022/07/10 12:09:17;;;;;;;3.73;1.70;;;21.80;99.90;;;;;;5128016;28;20168;-88
2022/07/10 12:11:57;;;;;;;2.73;1.70;;;22.30;99.90;;;;;;5132346;28;20173;-87
2022/07/10 12:14:23;;;;;;;2.10;1.50;;;22.10;99.90;;;;;;5125046;28;20183;-88
2022/07/10 12:16:53;;;;;;;1.90;1.13;;;21.70;99.90;;;;;;5125073;28;20180;-88
2022/07/10 12:19:24;;;;;;;2.67;1.43;;;22.00;99.90;;;;;;5124517;28;20172;-87
2022/07/10 12:21:50;;;;;;;1.60;1.40;;;;;;;;;;5124477;28;20208;-86
2022/07/10 12:24:19;;;;;;;3.10;1.53;;;23.00;99.90;;;;;;5124943;28;20286;-88
2022/07/10 12:26:45;;;;;;;1.83;1.30;;;23.00;99.90;;;;;;5124856;28;20547;-88
2022/07/10 12:29:22;;;;;;;2.37;1.40;;;22.70;99.90;;;;;;5124615;28;20186;-88
2022/07/10 12:31:56;;;;;;;2.50;1.10;;;22.10;99.90;;;;;;5123991;28;20175;-87
2022/07/10 12:34:50;;;;;;;3.60;1.57;;;21.70;99.90;;;;;;5124227;28;20188;-86
2022/07/10 12:37:16;;;;;;;1.43;1.20;;;22.00;99.90;;;;;;5130958;28;20179;-87
2022/07/10 12:39:53;;;;;;;2.40;1.20;;;22.70;99.90;;;;;;5130635;28;20189;-88
2022/07/10 12:42:45;;;;;;;3.53;1.40;;;22.90;99.90;;;;;;5124372;28;20223;-87
2022/07/10 12:45:15;;;;;;;1.37;1.10;;;23.00;99.90;;;;;;5123073;28;20271;-86
2022/07/10 12:47:49;;;;;;;2.77;1.20;;;23.10;99.90;;;;;;5123729;28;20176;-88
2022/07/10 12:50:17;;;;;;;1.77;1.20;;;23.30;99.90;;;;;;5123227;28;20265;-87
2022/07/10 12:52:43;;;;;;;2.67;1.30;;;23.80;99.90;;;;;;5124470;28;20204;-88
2022/07/10 12:55:21;;;;;;;2.17;1.20;;;24.20;99.90;;;;;;5124253;28;20216;-88
2022/07/10 12:57:54;;;;;;;5.50;1.30;;;24.40;99.90;;;;;;5125841;28;20211;-87
2022/07/10 13:00:25;;;;;;;2.63;1.13;;;24.40;99.90;;;;;;5125337;28;20175;-87
2022/07/10 13:03:08;;;;;;;1.50;1.07;;;23.80;99.90;;;;;;5121825;28;20199;-88
2022/07/10 13:05:35;;;;;;;2.70;1.10;;;23.40;99.90;;;;;;5119558;28;20210;-88
2022/07/10 13:08:23;;;;;;;1.50;1.17;;;23.60;99.90;;;;;;5119817;28;20174;-84
2022/07/10 13:10:54;;;;;;;1.27;1.13;;;23.90;99.90;;;;;;5121819;28;20651;-85
2022/07/10 13:13:20;;;;;;;1.30;1.10;;;24.20;99.90;;;;;;5122034;28;20271;-83
2022/07/10 13:15:49;;;;;;;2.53;1.40;;;24.40;99.90;;;;;;5120167;28;20270;-86
2022/07/10 13:18:21;;;;;;;2.70;1.10;;;24.40;99.90;;;;;;5124830;28;20213;-85
2022/07/10 13:20:47;;;;;;;2.67;1.00;;;23.60;99.60;;;;;;5127421;28;20204;-84
2022/07/10 13:23:14;;;;;;;1.10;1.00;;;22.90;99.90;;;;;;5128150;28;20199;-83